Time;durP1;ratioP1;P1;durP2;ratioP2;P2;SDS_P1;SDS_P2;PMS_P1;PMS_P2;Temp;Humidity;BMP_temperature;BMP_pressure;BME280_temperature;BME280_humidity;BME280_pressure;Samples;Min_cycle;Max_cycle;Signal;HPM_P1;HPM_P2
2022/04/16 00:02:11;;;;;;;4.45;1.57;;;17.40;99.90;;;;;;1945093;73;21497;-80
2022/04/16 00:05:02;;;;;;;4.28;1.87;;;17.40;99.90;;;;;;1954643;73;21662;-80
2022/04/16 00:08:09;;;;;;;4.28;1.67;;;17.40;99.90;;;;;;1934822;73;21504;-80
2022/04/16 00:11:01;;;;;;;3.95;1.98;;;17.20;99.90;;;;;;1941560;73;21097;-80
2022/04/16 00:13:53;;;;;;;4.50;1.98;;;17.20;99.90;;;;;;1944007;73;21578;-80
2022/04/16 00:16:45;;;;;;;3.42;1.80;;;17.10;99.90;;;;;;1930127;74;21053;-80
2022/04/16 00:19:36;;;;;;;4.60;1.90;;;17.10;99.90;;;;;;1953515;73;21517;-80
2022/04/16 00:22:27;;;;;;;5.55;1.90;;;17.00;99.90;;;;;;1953077;73;21076;-80
2022/04/16 00:25:19;;;;;;;5.28;1.80;;;16.90;99.90;;;;;;1952045;73;21598;-80
2022/04/16 00:28:11;;;;;;;6.42;2.00;;;16.90;99.90;;;;;;1948032;73;21130;-80
2022/04/16 00:31:03;;;;;;;5.08;2.40;;;16.90;99.90;;;;;;1952845;73;21089;-80
2022/04/16 00:33:55;;;;;;;4.70;2.10;;;16.90;99.90;;;;;;1953489;73;21112;-80
2022/04/16 00:36:47;;;;;;;5.05;1.92;;;16.80;99.90;;;;;;1952898;73;21049;-80
2022/04/16 00:39:39;;;;;;;5.72;2.20;;;16.80;99.90;;;;;;1948133;73;21100;-80
2022/04/16 00:42:35;;;;;;;3.55;1.90;;;16.80;99.90;;;;;;1943461;73;21489;-80
2022/04/16 00:45:28;;;;;;;5.33;1.80;;;16.80;99.90;;;;;;1941324;73;21033;-81
2022/04/16 00:48:20;;;;;;;3.02;1.67;;;16.90;99.90;;;;;;1941881;73;21156;-80
2022/04/16 00:51:13;;;;;;;3.52;1.77;;;17.00;99.90;;;;;;1942835;73;21119;-80
2022/04/16 00:54:05;;;;;;;3.27;2.00;;;17.00;99.90;;;;;;1947103;73;21042;-80
2022/04/16 00:56:57;;;;;;;3.85;2.00;;;16.90;99.90;;;;;;1941977;73;21206;-80
2022/04/16 00:59:54;;;;;;;4.58;2.05;;;16.90;99.90;;;;;;1941601;73;21078;-80
2022/04/16 01:02:47;;;;;;;6.62;2.00;;;16.90;99.90;;;;;;1939282;73;21042;-80
2022/04/16 01:05:39;;;;;;;3.05;1.90;;;16.90;99.90;;;;;;1950371;73;21085;-80
2022/04/16 01:08:31;;;;;;;4.55;2.10;;;16.80;99.90;;;;;;1943211;73;21042;-80
2022/04/16 01:11:23;;;;;;;4.78;2.00;;;16.70;99.90;;;;;;1941613;73;21081;-80
2022/04/16 01:14:17;;;;;;;5.72;2.10;;;16.60;99.90;;;;;;1941360;73;21583;-80
2022/04/16 01:17:09;;;;;;;3.47;1.87;;;16.50;99.90;;;;;;1964450;73;21083;-80
2022/04/16 01:20:03;;;;;;;6.45;1.75;;;16.50;99.90;;;;;;1948801;73;21170;-80
2022/04/16 01:22:56;;;;;;;5.78;2.17;;;16.50;99.90;;;;;;1953436;73;21086;-80
2022/04/16 01:25:48;;;;;;;3.75;2.00;;;16.30;99.90;;;;;;1952913;73;21034;-80
2022/04/16 01:28:40;;;;;;;3.17;2.00;;;16.20;99.90;;;;;;1953478;73;21155;-80
2022/04/16 01:31:32;;;;;;;3.70;2.10;;;16.20;99.90;;;;;;1948209;73;21034;-80
2022/04/16 01:34:25;;;;;;;3.60;2.05;;;16.20;99.90;;;;;;1942788;73;21561;-80
2022/04/16 01:37:17;;;;;;;3.65;2.15;;;16.10;99.90;;;;;;1941440;73;21057;-80
2022/04/16 01:40:14;;;;;;;8.10;2.42;;;16.20;99.90;;;;;;1941380;73;21129;-80
2022/04/16 01:43:06;;;;;;;4.15;2.22;;;16.10;99.90;;;;;;1943265;73;21148;-81
2022/04/16 01:45:58;;;;;;;4.95;2.27;;;16.00;99.90;;;;;;1930281;74;21046;-80
2022/04/16 01:48:50;;;;;;;3.72;1.90;;;16.00;99.90;;;;;;1953138;73;21160;-80
2022/04/16 01:51:42;;;;;;;4.47;1.92;;;15.90;99.90;;;;;;1935167;73;21026;-80
2022/04/16 01:54:34;;;;;;;4.28;2.27;;;15.90;99.90;;;;;;1941600;73;21104;-80
2022/04/16 01:57:26;;;;;;;6.37;2.42;;;15.90;99.90;;;;;;1946501;73;21046;-80
2022/04/16 02:00:19;;;;;;;3.58;2.20;;;15.80;99.90;;;;;;1930415;74;21114;-80
2022/04/16 02:03:11;;;;;;;5.65;2.00;;;15.70;99.90;;;;;;1953296;73;21045;-80
2022/04/16 02:06:03;;;;;;;5.62;1.98;;;15.60;99.90;;;;;;1953256;73;21042;-80
2022/04/16 02:08:55;;;;;;;6.37;2.22;;;15.60;99.90;;;;;;1949174;73;21159;-80
2022/04/16 02:11:46;;;;;;;5.03;2.08;;;15.60;99.90;;;;;;1943831;73;21067;-81
2022/04/16 02:14:38;;;;;;;3.30;2.17;;;15.60;99.90;;;;;;1952489;73;21159;-82
2022/04/16 02:17:32;;;;;;;3.92;2.20;;;15.40;99.90;;;;;;1933065;73;21046;-80
2022/04/16 02:20:24;;;;;;;4.75;2.35;;;15.40;99.90;;;;;;1943169;73;21136;-81
2022/04/16 02:23:16;;;;;;;3.72;2.20;;;15.30;99.90;;;;;;1941273;73;21102;-80
2022/04/16 02:26:11;;;;;;;5.03;2.33;;;15.40;99.90;;;;;;1923512;73;21112;-80
2022/04/16 02:29:05;;;;;;;4.00;2.20;;;15.30;99.90;;;;;;1923333;73;21484;-80
2022/04/16 02:32:02;;;;;;;6.62;2.15;;;15.30;99.90;;;;;;1926243;73;21042;-80
2022/04/16 02:35:00;;;;;;;6.25;2.20;;;15.40;99.90;;;;;;1936104;73;21050;-80
2022/04/16 02:37:54;;;;;;;5.37;2.00;;;15.40;99.90;;;;;;1940609;73;21043;-80
2022/04/16 02:40:47;;;;;;;4.25;2.27;;;15.30;99.90;;;;;;1935964;73;21070;-80
2022/04/16 02:43:42;;;;;;;3.22;2.20;;;15.30;99.90;;;;;;1907515;73;21042;-80
2022/04/16 02:49:45;;;;;;;7.12;2.20;;;15.10;99.90;;;;;;1925400;73;21584;-80
2022/04/16 02:52:39;;;;;;;8.08;2.60;;;15.00;99.90;;;;;;1937651;73;21109;-80
2022/04/16 02:55:32;;;;;;;6.37;2.22;;;15.10;99.90;;;;;;1923478;74;21152;-80
2022/04/16 02:58:24;;;;;;;4.83;2.10;;;15.10;99.90;;;;;;1956739;73;21037;-80
2022/04/16 03:01:19;;;;;;;5.22;2.58;;;15.10;99.90;;;;;;1906968;73;21128;-80
2022/04/16 03:04:14;;;;;;;4.15;2.25;;;15.00;99.90;;;;;;1956873;73;21497;-80
2022/04/16 03:07:08;;;;;;;4.42;2.08;;;15.10;99.90;;;;;;1923473;74;21133;-80
2022/04/16 03:10:06;;;;;;;3.25;2.30;;;15.10;99.90;;;;;;1934659;73;21038;-80
2022/04/16 03:19:27;;;;;;;4.53;2.45;;;15.10;99.90;;;;;;1946708;73;21042;-81
2022/04/16 03:22:21;;;;;;;4.83;2.30;;;15.00;99.90;;;;;;1947309;73;21225;-81
2022/04/16 03:25:14;;;;;;;4.83;2.70;;;14.90;99.90;;;;;;1954242;73;21062;-81
2022/04/16 03:28:21;;;;;;;5.42;2.92;;;14.80;99.90;;;;;;1870038;76;21070;-80
2022/04/16 03:31:27;;;;;;;7.83;2.87;;;14.80;99.90;;;;;;1943553;73;21022;-81
2022/04/16 03:34:31;;;;;;;3.42;2.15;;;14.70;99.90;;;;;;1866928;76;21173;-81
2022/04/16 03:37:24;;;;;;;5.05;2.40;;;14.70;99.90;;;;;;1941684;73;21089;-82
2022/04/16 03:40:20;;;;;;;4.30;2.65;;;14.70;99.90;;;;;;1866823;76;21151;-82
2022/04/16 03:46:27;;;;;;;5.83;2.98;;;14.70;99.90;;;;;;1876986;76;21393;-80
2022/04/16 03:49:26;;;;;;;5.22;2.70;;;14.70;99.90;;;;;;1937456;73;21058;-80
2022/04/16 03:52:20;;;;;;;4.20;2.50;;;14.60;99.90;;;;;;1869051;76;21115;-80
2022/04/16 04:04:38;;;;;;;5.05;2.80;;;14.40;99.90;;;;;;1971069;72;22256;-74
2022/04/16 04:07:48;;;;;;;3.75;2.40;;;14.40;99.90;;;;;;1917727;75;21109;-81
2022/04/16 04:10:59;;;;;;;5.92;2.77;;;14.40;99.90;;;;;;1919653;73;21148;-81
2022/04/16 04:13:51;;;;;;;4.65;2.85;;;14.30;99.90;;;;;;1932007;73;21544;-81
2022/04/16 04:17:02;;;;;;;6.83;2.52;;;14.30;99.90;;;;;;1917687;74;21066;-76
2022/04/16 04:19:54;;;;;;;7.20;2.65;;;14.20;99.90;;;;;;1930498;73;21125;-77
2022/04/16 04:22:50;;;;;;;5.45;2.83;;;14.10;99.90;;;;;;1921055;73;21058;-76
2022/04/16 04:25:42;;;;;;;5.08;2.60;;;14.00;99.90;;;;;;1917552;75;21047;-76
2022/04/16 04:28:34;;;;;;;5.83;2.62;;;14.00;99.90;;;;;;1917265;73;21543;-75
2022/04/16 04:31:26;;;;;;;4.08;2.77;;;14.00;99.90;;;;;;1917615;75;21122;-75
2022/04/16 04:34:19;;;;;;;3.80;3.02;;;14.10;99.90;;;;;;1939976;73;21148;-76
2022/04/16 04:37:10;;;;;;;5.03;2.60;;;14.00;99.90;;;;;;1917627;75;21212;-75
2022/04/16 04:40:02;;;;;;;4.25;2.42;;;13.90;99.90;;;;;;1917635;75;21136;-75
2022/04/16 04:42:54;;;;;;;7.75;3.17;;;13.90;99.90;;;;;;1934447;73;21212;-75
2022/04/16 04:45:48;;;;;;;6.08;2.75;;;14.00;99.90;;;;;;1951095;73;21066;-76
2022/04/16 04:48:40;;;;;;;6.28;3.58;;;13.90;99.90;;;;;;1921313;73;21098;-76
2022/04/16 04:51:34;;;;;;;5.62;3.70;;;13.90;99.90;;;;;;1917598;75;21158;-77
2022/04/16 04:54:25;;;;;;;7.10;2.75;;;13.80;99.90;;;;;;1917742;75;21091;-75
2022/04/16 04:57:17;;;;;;;6.03;3.17;;;13.70;99.90;;;;;;1917497;75;21606;-75
2022/04/16 05:00:14;;;;;;;5.08;3.30;;;13.70;99.90;;;;;;1927277;73;21522;-75
2022/04/16 05:03:06;;;;;;;5.92;3.15;;;13.70;99.90;;;;;;1928837;73;21553;-75
2022/04/16 05:05:57;;;;;;;4.97;2.98;;;13.70;99.90;;;;;;1915907;74;21167;-76
2022/04/16 05:08:49;;;;;;;5.17;3.15;;;13.80;99.90;;;;;;1905341;75;21067;-76
2022/04/16 05:11:41;;;;;;;6.58;3.12;;;13.80;99.90;;;;;;1929548;73;21529;-75
2022/04/16 05:14:33;;;;;;;4.62;3.08;;;13.80;99.90;;;;;;1909341;74;21057;-75
2022/04/16 05:17:25;;;;;;;4.50;3.02;;;13.80;99.90;;;;;;1904614;75;21122;-75
2022/04/16 05:20:18;;;;;;;5.08;3.33;;;13.80;99.90;;;;;;1904650;75;21133;-75
2022/04/16 05:23:12;;;;;;;7.17;3.47;;;13.80;99.90;;;;;;1904534;75;21164;-75
2022/04/16 05:26:05;;;;;;;15.48;3.70;;;13.80;99.90;;;;;;1904489;75;21555;-81
2022/04/16 05:29:01;;;;;;;11.53;3.22;;;13.80;99.90;;;;;;1904531;75;21304;-76
2022/04/16 05:31:54;;;;;;;10.82;3.62;;;13.80;99.90;;;;;;1917068;75;21066;-76
2022/04/16 05:34:46;;;;;;;7.47;3.47;;;13.80;99.90;;;;;;1916992;75;21047;-76
2022/04/16 05:37:38;;;;;;;7.20;3.60;;;13.70;99.90;;;;;;1917114;75;21105;-81
2022/04/16 05:40:30;;;;;;;8.25;3.37;;;13.70;99.90;;;;;;1916971;75;21091;-81
2022/04/16 05:43:23;;;;;;;4.67;3.47;;;13.70;99.90;;;;;;1939480;73;21064;-80
2022/04/16 05:46:15;;;;;;;5.25;3.40;;;13.70;99.90;;;;;;1912729;74;21149;-80
2022/04/16 05:49:08;;;;;;;5.53;4.03;;;13.80;99.90;;;;;;1904569;74;21095;-80
2022/04/16 05:51:59;;;;;;;4.42;3.50;;;13.90;99.90;;;;;;1917003;75;21177;-80
2022/04/16 05:54:52;;;;;;;7.12;3.72;;;13.90;99.90;;;;;;1939142;73;21106;-80
2022/04/16 05:57:44;;;;;;;4.45;3.12;;;13.90;99.90;;;;;;1916952;75;21145;-80
2022/04/16 06:00:37;;;;;;;10.40;4.17;;;13.90;99.90;;;;;;1919316;74;21140;-80
2022/04/16 06:03:29;;;;;;;8.98;3.47;;;14.00;99.90;;;;;;1917963;73;21205;-80
2022/04/16 06:06:21;;;;;;;10.03;3.45;;;14.00;99.90;;;;;;1917256;75;21122;-80
2022/04/16 06:09:14;;;;;;;7.65;3.33;;;14.00;99.90;;;;;;1909647;73;21630;-80
2022/04/16 06:12:12;;;;;;;7.78;3.50;;;13.90;99.90;;;;;;1904458;75;21059;-83
2022/04/16 06:15:09;;;;;;;7.95;3.27;;;13.80;99.90;;;;;;1904453;75;21178;-81
2022/04/16 06:18:05;;;;;;;4.97;3.87;;;13.90;99.90;;;;;;1904451;75;21387;-80
2022/04/16 06:21:01;;;;;;;5.10;3.52;;;13.90;99.90;;;;;;1927049;74;21121;-80
2022/04/16 06:23:58;;;;;;;6.80;3.87;;;14.00;99.90;;;;;;1887697;75;21184;-80
2022/04/16 06:26:54;;;;;;;5.33;3.20;;;14.10;99.90;;;;;;1904278;75;21605;-80
2022/04/16 06:29:47;;;;;;;6.70;3.62;;;14.20;99.90;;;;;;1886869;75;21153;-80
2022/04/16 06:32:43;;;;;;;5.95;3.42;;;14.30;99.90;;;;;;1910184;75;21094;-80
2022/04/16 06:35:37;;;;;;;7.05;3.55;;;14.30;99.90;;;;;;1922795;73;21062;-80
2022/04/16 06:38:32;;;;;;;5.53;3.70;;;14.30;99.90;;;;;;1914315;74;21150;-81
2022/04/16 06:41:25;;;;;;;7.42;4.20;;;14.50;99.90;;;;;;1924338;74;21251;-81
2022/04/16 06:44:27;;;;;;;6.90;4.40;;;14.60;99.90;;;;;;1898321;74;21085;-80
2022/04/16 06:47:23;;;;;;;4.97;3.60;;;14.70;99.90;;;;;;1904475;75;21085;-82
2022/04/16 06:50:20;;;;;;;5.12;3.72;;;14.80;99.90;;;;;;1916723;75;21677;-80
2022/04/16 06:53:15;;;;;;;8.33;3.95;;;14.90;99.90;;;;;;1939521;73;21562;-82
2022/04/16 06:56:08;;;;;;;7.12;3.98;;;15.00;99.90;;;;;;1917063;75;21552;-81
2022/04/16 06:59:03;;;;;;;6.30;3.70;;;15.10;99.90;;;;;;1932910;73;21109;-80
2022/04/16 07:01:59;;;;;;;5.47;4.10;;;15.00;99.90;;;;;;1916806;75;21584;-80
2022/04/16 07:04:56;;;;;;;5.87;3.65;;;15.00;99.90;;;;;;1917889;74;21141;-80
2022/04/16 07:07:51;;;;;;;6.92;4.03;;;14.90;99.90;;;;;;1918366;74;21050;-80
2022/04/16 07:10:44;;;;;;;5.12;4.05;;;14.80;99.90;;;;;;1924832;74;21121;-80
2022/04/16 07:13:40;;;;;;;6.22;3.87;;;14.80;99.90;;;;;;1928029;74;21122;-80
2022/04/16 07:16:37;;;;;;;7.25;4.22;;;14.80;99.90;;;;;;1919262;74;21111;-80
2022/04/16 07:19:29;;;;;;;9.48;4.00;;;14.90;99.90;;;;;;1936489;74;22262;-80
2022/04/16 07:22:22;;;;;;;6.08;4.05;;;14.90;99.90;;;;;;1907818;75;21499;-81
2022/04/16 07:25:26;;;;;;;6.70;3.95;;;15.10;99.90;;;;;;1931994;74;21652;-80
2022/04/16 07:28:22;;;;;;;7.75;4.15;;;15.20;99.90;;;;;;1928239;74;21478;-80
2022/04/16 07:31:20;;;;;;;8.23;3.72;;;15.30;99.90;;;;;;1892726;74;21068;-80
2022/04/16 07:34:16;;;;;;;5.37;3.17;;;15.30;99.90;;;;;;1920466;74;21124;-80
2022/04/16 07:37:12;;;;;;;4.97;3.25;;;15.40;99.90;;;;;;1922047;74;21059;-82
2022/04/16 07:40:13;;;;;;;8.00;3.87;;;15.50;99.90;;;;;;1904963;74;21046;-81
2022/04/16 07:43:06;;;;;;;6.72;2.92;;;15.60;99.90;;;;;;1891507;75;21059;-80
2022/04/16 07:46:08;;;;;;;5.85;2.85;;;15.60;99.90;;;;;;1920188;74;21051;-81
2022/04/16 07:49:06;;;;;;;5.10;2.62;;;15.70;99.90;;;;;;1918278;74;21063;-80
2022/04/16 07:51:59;;;;;;;6.30;3.00;;;15.80;99.90;;;;;;1921072;74;21052;-80
2022/04/16 07:54:53;;;;;;;6.78;3.50;;;15.90;99.90;;;;;;1896631;74;21131;-80
2022/04/16 07:57:49;;;;;;;4.30;3.20;;;16.10;99.90;;;;;;1925619;74;21101;-81
2022/04/16 08:00:44;;;;;;;5.67;2.87;;;16.00;99.90;;;;;;1927036;74;21164;-82
2022/04/16 08:03:36;;;;;;;4.25;2.75;;;16.10;99.90;;;;;;1911273;74;21109;-81
2022/04/16 08:06:37;;;;;;;5.45;3.00;;;16.00;99.90;;;;;;1932152;73;21078;-81
2022/04/16 08:09:31;;;;;;;5.15;2.60;;;16.10;99.90;;;;;;1956166;73;21108;-80
2022/04/16 08:12:26;;;;;;;5.00;2.60;;;16.10;99.90;;;;;;1954975;73;21052;-79
2022/04/16 08:15:23;;;;;;;4.22;3.08;;;16.10;99.90;;;;;;1949609;73;21135;-79
2022/04/16 08:18:16;;;;;;;6.00;2.75;;;16.20;99.90;;;;;;1945272;73;21119;-79
2022/04/16 08:21:14;;;;;;;5.03;2.60;;;16.30;99.90;;;;;;1935283;73;21098;-79
2022/04/16 08:24:22;;;;;;;5.45;2.45;;;16.50;99.90;;;;;;1931934;74;21132;-78
2022/04/16 08:27:11;;;;;;;4.65;3.35;;;16.50;99.90;;;;;;1954521;73;21127;-78
2022/04/16 08:30:04;;;;;;;3.58;2.85;;;16.50;99.90;;;;;;1907939;74;21113;-79
2022/04/16 08:33:01;;;;;;;4.58;2.70;;;16.70;99.90;;;;;;1922145;73;21124;-79
2022/04/16 08:36:01;;;;;;;4.62;2.65;;;16.70;99.90;;;;;;1932126;73;21054;-79
2022/04/16 08:38:57;;;;;;;6.67;2.87;;;16.90;99.90;;;;;;1934223;73;21124;-79
2022/04/16 08:41:52;;;;;;;7.28;2.80;;;16.90;99.90;;;;;;1944618;73;21070;-80
2022/04/16 08:44:53;;;;;;;4.12;2.87;;;17.00;99.90;;;;;;1945663;73;21141;-79
2022/04/16 08:47:49;;;;;;;3.33;2.60;;;17.10;99.90;;;;;;1932708;74;21096;-78
2022/04/16 08:50:45;;;;;;;4.25;2.80;;;17.20;99.90;;;;;;1946309;73;21090;-81
2022/04/16 08:53:45;;;;;;;4.75;2.72;;;17.20;99.90;;;;;;1944221;73;21083;-79
2022/04/16 08:56:41;;;;;;;4.50;2.80;;;17.30;99.90;;;;;;1932882;73;21560;-79
2022/04/16 08:59:42;;;;;;;3.52;2.60;;;17.50;99.90;;;;;;1877741;76;21160;-79
2022/04/16 09:02:41;;;;;;;2.90;2.52;;;17.60;99.90;;;;;;1860574;76;21071;-79
2022/04/16 09:05:38;;;;;;;4.47;2.52;;;17.60;99.90;;;;;;1950711;73;21498;-79
2022/04/16 09:08:32;;;;;;;4.20;2.60;;;17.80;99.90;;;;;;1892722;75;21659;-79
2022/04/16 09:11:30;;;;;;;5.37;2.80;;;17.70;99.90;;;;;;1912248;74;21132;-80
2022/04/16 09:14:42;;;;;;;3.52;2.72;;;17.70;99.90;;;;;;1895272;74;21101;-79
2022/04/16 09:17:33;;;;;;;6.08;3.30;;;17.80;99.90;;;;;;1911916;74;21052;-79
2022/04/16 09:20:45;;;;;;;5.62;3.40;;;17.90;99.90;;;;;;1927163;74;21052;-79
2022/04/16 09:23:47;;;;;;;8.55;4.50;;;18.00;99.90;;;;;;1917188;74;21617;-79
2022/04/16 09:26:45;;;;;;;8.00;3.33;;;18.10;99.90;;;;;;1916155;73;21095;-79
2022/04/16 09:29:40;;;;;;;;;;;18.10;99.90;;;;;;1919627;75;21094;-79
2022/04/16 09:32:44;;;;;;;5.42;3.67;;;18.10;99.90;;;;;;1916454;73;20192;-79
2022/04/16 09:35:47;;;;;;;9.53;5.37;;;18.20;99.90;;;;;;1904457;75;21160;-79
2022/04/16 09:38:42;;;;;;;3.98;3.10;;;18.20;99.90;;;;;;1921063;73;21050;-79
2022/04/16 09:41:44;;;;;;;4.03;3.33;;;18.30;99.90;;;;;;1915215;74;21067;-80
2022/04/16 09:44:37;;;;;;;5.28;3.17;;;18.40;99.90;;;;;;1910623;74;21126;-79
2022/04/16 09:47:36;;;;;;;4.55;2.55;;;18.40;99.90;;;;;;1916779;75;21133;-80
2022/04/16 09:50:34;;;;;;;17.35;14.18;;;18.50;99.90;;;;;;1917085;75;21132;-80
2022/04/16 09:53:31;;;;;;;4.42;3.33;;;18.60;99.90;;;;;;1882927;74;21125;-80
2022/04/16 09:56:29;;;;;;;4.03;2.83;;;18.70;99.90;;;;;;1905851;73;21078;-79
2022/04/16 09:59:26;;;;;;;4.37;2.35;;;18.80;99.90;;;;;;1886626;75;21103;-78
2022/04/16 10:02:21;;;;;;;5.83;2.33;;;18.90;99.90;;;;;;1916997;75;21055;-79
2022/04/16 10:05:18;;;;;;;3.05;2.20;;;19.10;99.90;;;;;;1883080;75;21510;-79
2022/04/16 10:08:14;;;;;;;2.25;1.92;;;19.20;99.90;;;;;;1915647;74;21148;-79
2022/04/16 10:11:19;;;;;;;2.70;2.05;;;19.20;99.90;;;;;;1883010;74;21121;-79
2022/04/16 10:14:08;;;;;;;6.12;2.47;;;19.20;99.90;;;;;;1906467;74;21140;-80
2022/04/16 10:17:09;;;;;;;5.12;2.17;;;19.30;99.90;;;;;;1887199;75;21096;-80
2022/04/16 10:20:13;;;;;;;3.35;2.25;;;19.30;99.90;;;;;;1897817;74;21119;-78
2022/04/16 10:23:12;;;;;;;4.50;2.83;;;19.30;99.90;;;;;;1903642;73;21205;-81
2022/04/16 10:26:09;;;;;;;3.42;2.12;;;19.50;99.90;;;;;;1938795;73;21209;-81
2022/04/16 10:29:04;;;;;;;3.35;1.85;;;19.60;99.90;;;;;;1908561;73;21054;-79
2022/04/16 10:32:02;;;;;;;5.92;2.10;;;19.70;99.90;;;;;;1916673;75;21125;-80
2022/04/16 10:35:09;;;;;;;7.35;2.10;;;19.90;99.90;;;;;;1911889;74;21042;-81
2022/04/16 10:38:05;;;;;;;3.23;1.73;;;19.90;99.90;;;;;;1904904;75;21110;-81
2022/04/16 10:41:17;;;;;;;3.65;2.10;;;19.90;99.90;;;;;;1904555;75;21080;-81
2022/04/16 10:44:13;;;;;;;3.00;2.27;;;19.90;99.90;;;;;;1916635;75;21103;-79
2022/04/16 10:47:10;;;;;;;4.80;2.20;;;20.10;99.90;;;;;;1924650;73;21072;-80
2022/04/16 10:50:12;;;;;;;2.47;1.70;;;20.10;99.90;;;;;;1923105;73;21102;-81
2022/04/16 10:53:10;;;;;;;2.55;2.08;;;19.90;99.90;;;;;;1939554;73;21119;-81
2022/04/16 10:56:16;;;;;;;2.30;1.85;;;19.90;99.90;;;;;;1923553;74;21051;-80
2022/04/16 10:59:11;;;;;;;3.40;2.12;;;20.10;99.90;;;;;;1904633;75;21212;-80
2022/04/16 11:02:19;;;;;;;4.17;2.20;;;20.20;99.90;;;;;;1916912;75;21109;-81
2022/04/16 11:05:16;;;;;;;3.85;2.40;;;20.30;99.90;;;;;;1887289;75;21121;-80
2022/04/16 11:08:12;;;;;;;4.55;1.90;;;20.20;99.90;;;;;;1904205;74;21070;-81
2022/04/16 11:11:09;;;;;;;3.87;2.30;;;20.30;99.90;;;;;;1903951;74;21174;-81
2022/04/16 11:14:04;;;;;;;5.53;2.30;;;20.30;99.90;;;;;;1918201;74;21076;-81
2022/04/16 11:17:01;;;;;;;4.37;1.90;;;20.30;99.90;;;;;;1904667;75;21544;-81
2022/04/16 11:20:06;;;;;;;2.47;2.13;;;20.40;99.90;;;;;;1918206;74;21159;-81
2022/04/16 11:23:05;;;;;;;4.67;1.90;;;20.60;99.90;;;;;;1899389;73;21146;-80
2022/04/16 11:35:41;;;;;;;4.47;2.22;;;20.80;99.90;;;;;;1908137;74;21119;-80
2022/04/16 11:38:39;;;;;;;4.12;2.22;;;20.80;99.90;;;;;;1910877;73;21063;-81
2022/04/16 11:41:43;;;;;;;4.10;2.10;;;20.90;99.90;;;;;;1925648;74;21163;-82
2022/04/16 11:44:52;;;;;;;5.95;2.12;;;20.90;99.90;;;;;;1922156;74;21202;-81
2022/04/16 11:47:44;;;;;;;4.72;2.27;;;21.10;99.90;;;;;;1884500;75;21117;-81
2022/04/16 11:50:44;;;;;;;4.12;1.90;;;21.10;99.90;;;;;;1916778;75;21040;-81
2022/04/16 11:53:53;;;;;;;4.10;2.00;;;21.20;99.90;;;;;;1914168;74;21056;-81
2022/04/16 11:56:55;;;;;;;2.40;1.90;;;21.20;99.90;;;;;;1921636;73;21117;-81
2022/04/16 11:59:59;;;;;;;2.62;1.90;;;21.30;99.90;;;;;;1916580;75;21089;-81
2022/04/16 12:02:58;;;;;;;2.92;1.95;;;21.50;99.90;;;;;;1916737;75;21172;-73
2022/04/16 12:05:50;;;;;;;3.50;1.85;;;21.50;99.90;;;;;;1890329;74;21252;-75
2022/04/16 12:08:54;;;;;;;5.90;2.00;;;21.50;99.90;;;;;;1909211;74;21338;-76
2022/04/16 12:11:46;;;;;;;4.15;1.77;;;21.70;99.90;;;;;;1916768;75;21063;-76
2022/04/16 12:14:47;;;;;;;3.27;1.90;;;21.90;99.90;;;;;;1905760;74;21110;-76
2022/04/16 12:17:45;;;;;;;4.70;1.87;;;22.00;99.90;;;;;;1920796;73;21063;-75
2022/04/16 12:20:50;;;;;;;3.02;2.22;;;21.90;99.90;;;;;;1919145;74;21059;-76
2022/04/16 12:23:50;;;;;;;3.70;1.70;;;22.00;99.90;;;;;;1913603;73;21458;-76
2022/04/16 12:29:30;;;;;;;1.70;1.52;;;21.90;99.90;;;;;;1940992;72;22133;-76
2022/04/16 12:32:39;;;;;;;3.37;1.92;;;22.10;99.90;;;;;;1921890;74;21189;-75
2022/04/16 12:35:50;;;;;;;2.65;1.90;;;22.10;99.90;;;;;;1918711;74;21061;-75
2022/04/16 12:38:42;;;;;;;3.27;1.50;;;22.10;99.90;;;;;;1919215;74;21116;-76
2022/04/16 12:41:52;;;;;;;3.75;1.52;;;22.00;99.90;;;;;;1908851;75;21089;-76
2022/04/16 12:44:43;;;;;;;3.17;1.50;;;22.30;99.90;;;;;;1916251;75;21114;-75
2022/04/16 12:47:35;;;;;;;3.65;1.62;;;22.40;99.90;;;;;;1901080;74;21560;-76
2022/04/16 12:50:27;;;;;;;6.40;1.52;;;22.40;99.90;;;;;;1911608;74;21541;-76
2022/04/16 12:53:19;;;;;;;3.08;1.60;;;22.40;99.90;;;;;;1878719;75;21097;-76
2022/04/16 12:58:51;;;;;;;4.53;1.42;;;22.30;99.90;;;;;;1955335;72;22228;-81
2022/04/16 13:02:01;;;;;;;2.40;1.50;;;22.40;99.90;;;;;;1892056;73;21082;-79
2022/04/16 13:05:12;;;;;;;2.55;1.30;;;22.40;99.90;;;;;;1910616;75;21099;-79
2022/04/16 13:08:05;;;;;;;2.20;1.37;;;22.50;99.90;;;;;;1915959;75;21051;-80
2022/04/16 13:11:15;;;;;;;4.58;1.40;;;22.70;99.90;;;;;;1897374;75;21083;-80
2022/04/16 13:14:06;;;;;;;3.37;1.57;;;22.90;99.90;;;;;;1902585;75;21601;-80
2022/04/16 13:16:58;;;;;;;2.30;1.40;;;23.00;99.90;;;;;;1906646;75;21498;-80
2022/04/16 13:19:50;;;;;;;4.12;1.22;;;23.00;99.90;;;;;;1903391;74;21546;-80
2022/04/16 13:22:41;;;;;;;4.62;1.62;;;22.90;99.90;;;;;;1895329;73;21163;-82
2022/04/16 13:25:33;;;;;;;3.30;1.22;;;22.90;99.90;;;;;;1901630;75;21176;-81
2022/04/16 13:28:27;;;;;;;5.10;1.15;;;23.00;99.90;;;;;;1901230;75;21044;-81
2022/04/16 13:31:18;;;;;;;4.87;1.55;;;23.10;99.90;;;;;;1899901;75;21106;-80
2022/04/16 13:36:49;;;;;;;5.10;1.00;;;23.20;99.00;;;;;;1942038;72;22181;-79
2022/04/16 13:43:25;;;;;;;;;;;23.30;97.00;;;;;;1884432;75;21063;-79
2022/04/16 13:46:16;;;;;;;5.83;1.27;;;23.10;96.20;;;;;;1881829;75;20170;-80
2022/04/16 13:49:09;;;;;;;2.85;1.20;;;23.20;96.00;;;;;;1885719;75;21060;-80
2022/04/16 13:52:02;;;;;;;3.45;1.20;;;23.50;95.20;;;;;;1896607;74;21123;-79
2022/04/16 13:54:55;;;;;;;4.55;1.60;;;23.50;94.10;;;;;;1898717;75;21072;-80
2022/04/16 13:57:47;;;;;;;4.60;1.25;;;23.50;93.90;;;;;;1886884;75;21180;-80
2022/04/16 14:00:39;;;;;;;2.90;1.05;;;23.50;93.00;;;;;;1893993;75;21136;-80
2022/04/16 14:03:31;;;;;;;3.08;1.00;;;23.30;92.30;;;;;;1884077;75;21575;-80
2022/04/16 14:06:23;;;;;;;4.62;1.65;;;23.50;91.50;;;;;;1886798;75;21095;-79
2022/04/16 14:09:15;;;;;;;1.95;0.95;;;24.00;90.30;;;;;;1889910;75;21189;-79
2022/04/16 14:12:13;;;;;;;1.20;0.90;;;24.50;85.20;;;;;;1890921;75;21044;-80
2022/04/16 14:17:44;;;;;;;1.37;0.80;;;25.10;75.60;;;;;;1946683;72;22146;-77
2022/04/16 14:20:54;;;;;;;6.45;1.22;;;25.10;74.60;;;;;;1902728;75;21055;-82
2022/04/16 14:24:05;;;;;;;1.67;0.60;;;25.30;78.00;;;;;;1901040;73;21122;-82
2022/04/16 14:26:56;;;;;;;2.20;0.98;;;25.50;70.40;;;;;;1915824;75;21098;-83
2022/04/16 14:32:58;;;;;;;2.42;0.90;;;25.60;67.10;;;;;;1951293;72;22287;-82
2022/04/16 14:36:08;;;;;;;1.90;0.80;;;25.80;64.60;;;;;;1937973;73;21302;-77
2022/04/16 14:41:57;;;;;;;5.50;0.93;;;25.70;66.00;;;;;;1941437;72;22683;-77
2022/04/16 14:45:10;;;;;;;3.45;1.15;;;25.80;58.80;;;;;;1929775;73;21062;-78
2022/04/16 14:48:20;;;;;;;4.00;1.07;;;26.20;59.40;;;;;;1917534;73;21122;-77
2022/04/16 14:51:12;;;;;;;2.67;0.75;;;26.30;54.90;;;;;;1902030;74;21131;-77
2022/04/16 14:54:22;;;;;;;1.75;0.57;;;26.50;52.50;;;;;;1906683;73;21080;-77
2022/04/16 14:57:13;;;;;;;1.47;0.62;;;26.80;51.00;;;;;;1897369;75;21047;-77
2022/04/16 15:02:47;;;;;;;3.10;0.90;;;27.30;48.50;;;;;;1936567;72;22106;-73
2022/04/16 15:05:58;;;;;;;1.30;0.70;;;27.30;46.40;;;;;;1916025;74;21134;-73
2022/04/16 15:11:48;;;;;;;1.62;0.50;;;27.10;46.50;;;;;;1941521;72;22213;-73
2022/04/16 15:17:37;;;;;;;2.00;0.70;;;27.10;44.80;;;;;;1950073;72;22102;-76
2022/04/16 15:20:47;;;;;;;5.33;0.82;;;27.00;43.70;;;;;;1885831;75;21351;-75
2022/04/16 15:23:58;;;;;;;1.90;0.60;;;27.20;43.60;;;;;;1905636;75;21105;-75
2022/04/16 15:26:51;;;;;;;0.93;0.50;;;27.30;41.10;;;;;;1903056;75;21120;-75
2022/04/16 15:30:01;;;;;;;1.35;0.50;;;27.30;40.00;;;;;;1889839;75;21205;-75
2022/04/16 15:32:52;;;;;;;2.58;0.72;;;27.60;38.80;;;;;;1896896;75;21117;-75
2022/04/16 15:35:44;;;;;;;1.10;0.75;;;27.60;38.10;;;;;;1909245;75;21112;-75
2022/04/16 15:38:36;;;;;;;0.95;0.50;;;27.40;37.00;;;;;;1893079;75;21059;-75
2022/04/16 15:41:30;;;;;;;1.00;0.70;;;27.40;37.10;;;;;;1909494;75;21056;-75
2022/04/16 15:44:22;;;;;;;1.32;0.70;;;27.50;38.00;;;;;;1898679;75;21056;-75
2022/04/16 15:47:13;;;;;;;1.15;0.50;;;27.60;38.60;;;;;;1906398;75;21133;-76
2022/04/16 15:50:13;;;;;;;1.47;0.40;;;27.70;35.20;;;;;;1899752;75;21332;-76
2022/04/16 15:53:05;;;;;;;2.22;0.50;;;27.60;35.30;;;;;;1895119;75;21094;-75
2022/04/16 15:58:37;;;;;;;0.93;0.50;;;28.20;36.10;;;;;;1909576;72;22277;-76
2022/04/16 16:01:47;;;;;;;0.93;0.40;;;27.80;34.80;;;;;;1906552;75;21074;-76
2022/04/16 16:07:40;;;;;;;0.75;0.40;;;28.00;34.90;;;;;;1937838;72;22130;-76
2022/04/16 16:10:50;;;;;;;1.12;0.62;;;28.20;33.00;;;;;;1918711;74;21137;-76
2022/04/16 16:14:00;;;;;;;0.93;0.40;;;28.30;34.50;;;;;;1906042;75;21116;-76
2022/04/16 16:19:33;;;;;;;3.72;0.50;;;28.00;32.40;;;;;;1944701;72;22260;-76
2022/04/16 16:25:24;;;;;;;1.75;0.72;;;28.00;33.50;;;;;;1950033;72;22143;-75
2022/04/16 16:28:34;;;;;;;1.20;0.40;;;28.10;32.90;;;;;;1898547;74;21549;-75
2022/04/16 16:31:44;;;;;;;1.85;0.53;;;27.90;33.70;;;;;;1905409;75;21107;-75